Snow/Ice From: 17-12-2017 10:00 Until: 18-12-2017 06:00 warning for: Snow/Ice Level: Yellow info button

Although rather usual in this region, locally or potentially dangerous phenomena are expected. (such as local winds, summer thunderstorms, rising streams or high waves) Be aware and pay attention to the latest weather updates, especially if you carry out activities exposed to weather or close to a stream or shoreline. 


Meteo18 Weather Cam more information Meteo18 Weather Cam


Thunder radar more information blitzortung!


warning for Snow/Ice more information rain snow radar


Visit our other weather sites:

Template documentation
and downloads

And another site



Weather Underground History page Text

Daily Summary for January 10, 2017 Units:  English    Metric   Both
« Previous Day
Next Day »
Daily Weekly Monthly Yearly Custom
  High: Low: Average:
Temperature: 43.3 °F 38.5 °F 41.2 °F
Dew Point: 42.8 °F 37.4 °F 39.7 °F
Humidity: 98 % 88 % 95 %
Wind Speed: 11 mph 0 mph 3.4 mph
Wind Gust: 18 mph - -
Wind:- - West
Pressure: 30.1 in 29.9 in -
Precipitation: 0.22 in    
Historical Graphs
 
 
Tabular Data for January 10, 2017
Time Temperature Dew Point Pressure Wind Wind Speed Wind Gust Humidity Rainfall Rate (Hourly)
00:02 41.9 °F 41.4 °F 30.1 in SW 2 mph 10 mph 98 % 0.02 in
00:12 42.1 °F 41.5 °F 30.1 in WSW 7 mph 10 mph 98 % 0.02 in
00:17 42.1 °F 41.5 °F 30.1 in WSW 6 mph 10 mph 98 % 0.03 in
00:22 42.1 °F 41.5 °F 30.1 in SW 7 mph 10 mph 98 % 0.02 in
00:27 42.1 °F 41.5 °F 30.1 in SW 7 mph 11 mph 98 % 0.02 in
00:32 42.1 °F 41.5 °F 30.1 in SW 6 mph 11 mph 98 % 0.02 in
00:42 42.1 °F 41.5 °F 30 in WSW 8 mph 10 mph 98 % 0.02 in
00:47 42.1 °F 41.5 °F 30 in SSW 6 mph 10 mph 98 % 0.02 in
00:52 42.1 °F 41.5 °F 30 in SW 8 mph 10 mph 98 % 0.04 in
00:57 42.3 °F 41.7 °F 30 in SW 8 mph 10 mph 98 % 0.04 in
01:02 42.1 °F 41.5 °F 30 in SSW 6 mph 10 mph 98 % 0.03 in
01:07 42.1 °F 41.5 °F 30 in SSW 7 mph 11 mph 98 % 0.04 in
01:12 42.1 °F 41.5 °F 30 in SW 8 mph 11 mph 98 % 0.04 in
01:17 42.1 °F 41.5 °F 30 in SSW 11 mph 13 mph 98 % 0.03 in
01:22 42.3 °F 41.7 °F 30 in SSW 7 mph 13 mph 98 % 0.03 in
01:27 42.3 °F 41.7 °F 30 in SW 6 mph 13 mph 98 % 0.04 in
01:32 42.3 °F 41.7 °F 30 in WSW 7 mph 13 mph 98 % 0.03 in
01:37 42.3 °F 41.7 °F 30 in SSW 6 mph 13 mph 98 % 0.03 in
01:42 42.3 °F 41.7 °F 30 in SW 9 mph 12 mph 98 % 0.04 in
01:47 42.4 °F 41.9 °F 30 in SW 10 mph 14 mph 98 % 0.03 in
01:52 42.4 °F 41.9 °F 30 in SW 5 mph 14 mph 98 % 0.02 in
01:57 42.4 °F 41.9 °F 30 in SW 6 mph 14 mph 98 % 0.02 in
02:02 42.4 °F 41.9 °F 30 in SW 8 mph 13 mph 98 % 0.02 in
02:07 42.4 °F 41.9 °F 30 in SSW 4 mph 13 mph 98 % 0.02 in
02:12 42.4 °F 41.9 °F 30 in SW 9 mph 12 mph 98 % 0.02 in
02:17 42.6 °F 42.1 °F 30 in SSW 6 mph 12 mph 98 % 0.02 in
02:22 42.6 °F 42.1 °F 30 in SW 6 mph 12 mph 98 % 0.02 in
02:27 42.6 °F 42.1 °F 30 in SW 8 mph 12 mph 98 % 0.02 in
02:32 42.4 °F 41.9 °F 30 in SSW 9 mph 12 mph 98 % 0.02 in
02:37 42.4 °F 41.9 °F 30 in SW 9 mph 11 mph 98 % 0.03 in
02:42 42.4 °F 41.9 °F 29.9 in SW 7 mph 11 mph 98 % 0.02 in
02:47 42.3 °F 41.7 °F 29.9 in SW 7 mph 11 mph 98 % 0.02 in
02:52 42.3 °F 41.7 °F 29.9 in SSW 7 mph 13 mph 98 % 0.03 in
02:57 42.3 °F 41.7 °F 29.9 in SW 4 mph 13 mph 98 % 0.03 in
03:02 42.3 °F 41.7 °F 29.9 in SW 5 mph 12 mph 98 % 0.03 in
03:07 42.3 °F 41.7 °F 29.9 in SW 9 mph 11 mph 98 % 0.04 in
03:12 42.3 °F 41.7 °F 29.9 in SSW 3 mph 11 mph 98 % 0.05 in
03:17 42.4 °F 41.9 °F 29.9 in SW 6 mph 11 mph 98 % 0.06 in
03:22 42.6 °F 42.1 °F 29.9 in SSW 5 mph 11 mph 98 % 0.06 in
03:27 42.6 °F 42.1 °F 29.9 in SW 7 mph 12 mph 98 % 0.06 in
03:32 42.6 °F 42.1 °F 29.9 in SSW 5 mph 12 mph 98 % 0.05 in
03:37 42.6 °F 42.1 °F 29.9 in SSW 4 mph 11 mph 98 % 0.06 in
03:42 42.6 °F 42.1 °F 29.9 in SW 6 mph 10 mph 98 % 0.06 in
03:47 42.6 °F 42.1 °F 29.9 in West 5 mph 10 mph 98 % 0.05 in
03:52 42.6 °F 42.1 °F 29.9 in SW 2 mph 10 mph 98 % 0.05 in
03:57 42.8 °F 42.3 °F 29.9 in SW 2 mph 10 mph 98 % 0.05 in
04:07 42.8 °F 42.3 °F 29.9 in SSW 2 mph 7 mph 98 % 0.03 in
04:12 43 °F 42.4 °F 29.9 in SW 2 mph 7 mph 98 % 0.03 in
04:17 43 °F 42.4 °F 29.9 in SW 2 mph 7 mph 98 % 0.03 in
04:22 43 °F 42.4 °F 29.9 in WSW 4 mph 6 mph 98 % 0.03 in
04:27 43.2 °F 42.6 °F 29.9 in WSW 2 mph 5 mph 98 % 0.02 in
04:32 43.2 °F 42.6 °F 29.9 in WSW 2 mph 5 mph 98 % 0.02 in
04:37 43.2 °F 42.6 °F 29.9 in West 3 mph 5 mph 98 % 0.02 in
04:47 43.3 °F 42.8 °F 29.9 in WSW 4 mph 6 mph 98 % 0.03 in
04:52 43.3 °F 42.8 °F 29.9 in NNW 6 mph 12 mph 98 % 0.04 in
04:57 42.6 °F 41.9 °F 29.9 in NNW 6 mph 18 mph 97 % 0.04 in
05:02 42.3 °F 41.5 °F 29.9 in WNW 3 mph 18 mph 97 % 0.04 in
05:12 41.7 °F 40.6 °F 29.9 in NW 6 mph 14 mph 96 % 0.03 in
05:17 41.5 °F 40.5 °F 29.9 in NNW 4 mph 14 mph 96 % 0.03 in
05:22 41.5 °F 40.5 °F 29.9 in NW 2 mph 11 mph 96 % 0.03 in
05:27 41.4 °F 40.3 °F 29.9 in NNW 4 mph 8 mph 96 % 0.03 in
05:32 41.4 °F 40.3 °F 29.9 in North 2 mph 8 mph 96 % 0.03 in
05:37 41.2 °F 40.1 °F 29.9 in Calm   6 mph 96 % 0.02 in
05:42 41.2 °F 40.1 °F 29.9 in NNW 1 mph 5 mph 96 % 0.02 in
05:47 41.2 °F 40.1 °F 29.9 in Calm   3 mph 96 % 0.02 in
05:52 41 °F 39.9 °F 29.9 in NNW 1 mph 3 mph 96 % 0 in
05:57 41 °F 39.9 °F 29.9 in NNW 1 mph 3 mph 96 % 0 in
06:02 40.8 °F 39.7 °F 29.9 in North 3 mph 3 mph 96 % 0 in
06:07 40.8 °F 39.7 °F 29.9 in NNW 1 mph 5 mph 96 % 0 in
06:12 40.6 °F 39.6 °F 29.9 in NNE 1 mph 5 mph 96 % 0 in
06:17 40.6 °F 39.6 °F 29.9 in North 1 mph 5 mph 96 % 0 in
06:22 40.6 °F 39.6 °F 29.9 in NW 2 mph 5 mph 96 % 0 in
06:27 40.5 °F 39.4 °F 29.9 in NNW 2 mph 5 mph 96 % 0 in
06:32 40.3 °F 39.2 °F 29.9 in NNW 2 mph 5 mph 96 % 0 in
06:37 39.9 °F 38.8 °F 29.9 in North 1 mph 5 mph 96 % 0 in
06:42 39.9 °F 38.8 °F 29.9 in North 1 mph 5 mph 96 % 0 in
06:47 39.9 °F 38.8 °F 29.9 in NW 1 mph 3 mph 96 % 0 in
06:52 39.7 °F 38.7 °F 29.9 in NNW 2 mph 2 mph 96 % 0 in
06:57 39.6 °F 38.5 °F 29.9 in North 1 mph 2 mph 96 % 0 in
07:02 39.6 °F 38.5 °F 29.9 in NNW 1 mph 2 mph 96 % 0 in
07:07 39.6 °F 38.5 °F 29.9 in Calm   3 mph 96 % 0 in
07:12 39.6 °F 38.5 °F 29.9 in NW 1 mph 3 mph 96 % 0 in
07:17 39.6 °F 38.5 °F 29.9 in NW 1 mph 2 mph 96 % 0 in
07:22 39.6 °F 38.5 °F 29.9 in NW 1 mph 4 mph 96 % 0 in
07:27 39.6 °F 38.5 °F 29.9 in Calm   4 mph 96 % 0 in
07:32 39.4 °F 38.3 °F 29.9 in NNW 1 mph 4 mph 96 % 0 in
07:37 39.4 °F 38.7 °F 29.9 in WNW 1 mph 4 mph 97 % 0 in
07:42 39.2 °F 38.5 °F 29.9 in NW 2 mph 4 mph 97 % 0 in
07:47 39.2 °F 38.5 °F 29.9 in NW 2 mph 4 mph 97 % 0 in
07:52 39.4 °F 38.7 °F 29.9 in NW 2 mph 4 mph 97 % 0 in
07:57 39.2 °F 38.5 °F 29.9 in WNW 3 mph 4 mph 97 % 0 in
08:02 39.2 °F 38.5 °F 29.9 in WNW 1 mph 4 mph 97 % 0 in
08:07 39.2 °F 38.5 °F 29.9 in WNW 3 mph 6 mph 97 % 0 in
08:12 39.4 °F 38.7 °F 29.9 in NW 3 mph 6 mph 97 % 0 in
08:17 39.4 °F 38.7 °F 29.9 in WNW 3 mph 6 mph 97 % 0 in
08:22 39.4 °F 38.7 °F 29.9 in WNW 5 mph 7 mph 97 % 0 in
08:27 39.4 °F 38.7 °F 29.9 in NW 2 mph 7 mph 97 % 0 in
08:32 39.6 °F 38.8 °F 29.9 in WNW 2 mph 7 mph 97 % 0 in
08:37 39.6 °F 38.8 °F 29.9 in WNW 1 mph 8 mph 97 % 0 in
08:42 39.6 °F 38.5 °F 29.9 in WNW 1 mph 8 mph 96 % 0 in
08:52 39.4 °F 38.3 °F 29.9 in Calm   4 mph 96 % 0 in
08:57 39.4 °F 38.3 °F 29.9 in Calm   4 mph 96 % 0 in
09:02 39 °F 37.9 °F 29.9 in West 1 mph 4 mph 96 % 0 in
09:07 39 °F 37.9 °F 29.9 in Calm   2 mph 96 % 0 in
09:12 39.2 °F 38.1 °F 29.9 in WNW 1 mph 2 mph 96 % 0 in
09:17 39.6 °F 38.8 °F 29.9 in WNW 1 mph 3 mph 97 % 0 in
09:22 39.9 °F 39.2 °F 29.9 in WNW 2 mph 3 mph 97 % 0 in
09:27 40.3 °F 39.2 °F 29.9 in NW 3 mph 7 mph 96 % 0 in
09:32 40.5 °F 39.4 °F 29.9 in NW 2 mph 7 mph 96 % 0 in
09:37 40.6 °F 39.6 °F 29.9 in WNW 4 mph 7 mph 96 % 0 in
09:42 41 °F 39.7 °F 29.9 in West 1 mph 9 mph 95 % 0 in
09:52 41.2 °F 39.9 °F 29.9 in WNW 2 mph 9 mph 95 % 0 in
09:57 41.2 °F 39.9 °F 29.9 in WNW 4 mph 9 mph 95 % 0 in
10:02 41 °F 39.7 °F 29.9 in WNW 4 mph 9 mph 95 % 0 in
10:07 40.8 °F 39.6 °F 29.9 in WNW 2 mph 7 mph 95 % 0 in
10:12 40.8 °F 39.6 °F 29.9 in West 2 mph 7 mph 95 % 0 in
10:17 41 °F 39.7 °F 29.9 in WNW 1 mph 7 mph 95 % 0 in
10:22 41.4 °F 40.1 °F 29.9 in WNW 5 mph 7 mph 95 % 0 in
10:32 42.1 °F 40.5 °F 29.9 in NW 4 mph 8 mph 94 % 0 in
10:37 42.3 °F 40.6 °F 29.9 in WNW 6 mph 9 mph 94 % 0 in
10:42 42.3 °F 40.5 °F 29.9 in NNW 6 mph 9 mph 93 % 0 in
10:47 42.1 °F 40.3 °F 29.9 in NW 4 mph 12 mph 93 % 0 in
10:52 41.9 °F 40.3 °F 29.9 in NW 4 mph 12 mph 94 % 0 in
10:57 41.9 °F 40.3 °F 29.9 in WNW 3 mph 11 mph 94 % 0 in
11:02 41.9 °F 40.3 °F 29.9 in WNW 2 mph 10 mph 94 % 0 in
11:07 41.9 °F 40.3 °F 29.9 in West 3 mph 8 mph 94 % 0 in
11:17 41.7 °F 40.1 °F 29.9 in NW 3 mph 9 mph 94 % 0 in
11:22 41.7 °F 40.1 °F 29.9 in NNW 3 mph 9 mph 94 % 0 in
11:27 41.7 °F 40.1 °F 29.9 in WNW 9 mph 11 mph 94 % 0 in
11:32 41.5 °F 39.9 °F 29.9 in WNW 6 mph 12 mph 94 % 0.01 in
11:37 41.5 °F 39.9 °F 29.9 in WNW 1 mph 12 mph 94 % 0.01 in
11:47 41.5 °F 39.9 °F 29.9 in NW 5 mph 8 mph 94 % 0.01 in
11:52 41.5 °F 39.9 °F 29.9 in WNW 5 mph 9 mph 94 % 0.01 in
12:02 41.7 °F 40.1 °F 29.9 in NW 3 mph 8 mph 94 % 0.01 in
12:07 41.9 °F 40.3 °F 29.9 in WNW 6 mph 8 mph 94 % 0.01 in
12:17 42.3 °F 40.5 °F 29.9 in WNW 8 mph 8 mph 93 % 0.01 in
12:22 42.3 °F 40.1 °F 29.9 in WNW 4 mph 12 mph 92 % 0.01 in
12:27 42.4 °F 40.3 °F 29.9 in WNW 1 mph 12 mph 92 % 0.01 in
12:37 42.4 °F 39.7 °F 29.9 in NW 5 mph 10 mph 90 % 0 in
12:42 42.4 °F 39.9 °F 29.9 in West 7 mph 10 mph 91 % 0 in
12:47 42.6 °F 39.9 °F 29.9 in WNW 7 mph 12 mph 90 % 0 in
12:52 42.6 °F 39.9 °F 29.9 in WNW 6 mph 12 mph 90 % 0 in
12:57 42.6 °F 39.9 °F 29.9 in WNW 4 mph 12 mph 90 % 0 in
13:02 42.6 °F 39.9 °F 29.9 in NW 4 mph 11 mph 90 % 0 in
13:07 42.6 °F 39.9 °F 29.9 in WSW 1 mph 11 mph 90 % 0 in
13:17 42.8 °F 39.7 °F 29.9 in WNW 3 mph 12 mph 89 % 0 in
13:22 42.4 °F 39.4 °F 29.9 in NNE 7 mph 12 mph 89 % 0 in
13:27 42.3 °F 39.6 °F 29.9 in NW 8 mph 12 mph 90 % 0.01 in
13:32 41 °F 38.3 °F 29.9 in WNW 8 mph 15 mph 90 % 0.02 in
13:37 40.5 °F 38.1 °F 29.9 in NW 2 mph 15 mph 91 % 0.03 in
13:42 40.6 °F 38.5 °F 29.9 in NW 4 mph 15 mph 92 % 0.03 in
13:52 41.4 °F 39.7 °F 29.9 in NNW 7 mph 8 mph 94 % 0.03 in
14:02 41.7 °F 39.6 °F 29.9 in NW 5 mph 13 mph 92 % 0.03 in
14:07 41.9 °F 39.7 °F 29.9 in NNW 3 mph 14 mph 92 % 0.03 in
14:12 41.9 °F 39.7 °F 29.9 in North 1 mph 14 mph 92 % 0.03 in
14:17 41.9 °F 39.7 °F 29.9 in NW 8 mph 14 mph 92 % 0.03 in
14:22 41.9 °F 39.7 °F 29.9 in NW 3 mph 16 mph 92 % 0.03 in
14:27 41.9 °F 39.7 °F 29.9 in WNW 7 mph 16 mph 92 % 0.02 in
14:32 41.9 °F 39.7 °F 29.9 in WNW 5 mph 16 mph 92 % 0.01 in
14:37 42.1 °F 39.9 °F 29.9 in WNW 5 mph 11 mph 92 % 0 in
14:42 42.3 °F 39.7 °F 29.9 in WNW 4 mph 13 mph 91 % 0 in
14:47 42.3 °F 39.7 °F 29.9 in WNW 2 mph 13 mph 91 % 0 in
14:52 42.3 °F 39.6 °F 29.9 in WNW 4 mph 13 mph 90 % 0 in
14:57 42.3 °F 39.6 °F 29.9 in NNW 5 mph 11 mph 90 % 0 in
15:02 42.4 °F 39.4 °F 29.9 in NNW 6 mph 12 mph 89 % 0 in
15:07 42.4 °F 39.4 °F 29.9 in WNW 5 mph 12 mph 89 % 0 in
15:12 42.4 °F 39.4 °F 29.9 in NNW 2 mph 12 mph 89 % 0 in
15:17 42.6 °F 39.6 °F 29.9 in NNW 6 mph 11 mph 89 % 0 in
15:22 42.8 °F 39.6 °F 29.9 in North 3 mph 11 mph 88 % 0 in
15:27 43 °F 39.7 °F 29.9 in NW 9 mph 11 mph 88 % 0 in
15:32 43.2 °F 39.9 °F 29.9 in NNW 7 mph 12 mph 88 % 0 in
15:37 43 °F 39.7 °F 29.9 in NW 4 mph 12 mph 88 % 0 in
15:42 42.6 °F 39.4 °F 29.9 in NNW 5 mph 12 mph 88 % 0 in
15:47 42.6 °F 39.4 °F 29.9 in NNW 3 mph 11 mph 88 % 0 in
15:52 42.6 °F 39.4 °F 29.9 in NW 4 mph 13 mph 88 % 0 in
15:57 43 °F 39.9 °F 29.9 in NNW 5 mph 13 mph 89 % 0 in
16:02 43 °F 39.7 °F 29.9 in WNW 2 mph 12 mph 88 % 0 in
16:07 43.2 °F 39.9 °F 29.9 in NW 4 mph 12 mph 88 % 0 in
16:12 43.2 °F 39.9 °F 29.9 in NW 8 mph 12 mph 88 % 0 in
16:17 43.2 °F 39.9 °F 29.9 in WNW 5 mph 11 mph 88 % 0 in
16:22 43.2 °F 39.9 °F 29.9 in NW 3 mph 11 mph 88 % 0 in
16:27 43 °F 39.7 °F 29.9 in NW 3 mph 11 mph 88 % 0 in
16:32 43 °F 39.7 °F 29.9 in WNW 1 mph 11 mph 88 % 0 in
16:37 43 °F 39.7 °F 29.9 in North 5 mph 8 mph 88 % 0 in
16:42 42.6 °F 39.4 °F 29.9 in NW 5 mph 8 mph 88 % 0 in
16:52 42.3 °F 39.2 °F 29.9 in North 5 mph 6 mph 89 % 0 in
17:02 41.9 °F 38.8 °F 30 in NW 2 mph 7 mph 89 % 0 in
17:07 41.7 °F 39 °F 30 in NW 1 mph 7 mph 90 % 0 in
17:12 41.5 °F 38.8 °F 30 in Calm   5 mph 90 % 0 in
17:52 40.6 °F 38.3 °F 30 in Calm   3 mph 91 % 0 in
18:02 40.5 °F 38.1 °F 30 in WNW 4 mph 4 mph 91 % 0 in
18:17 40.5 °F 38.3 °F 30 in WNW 2 mph 4 mph 92 % 0 in
18:27 40.5 °F 38.3 °F 30 in West 2 mph 4 mph 92 % 0 in
18:32 40.5 °F 38.3 °F 30 in WNW 3 mph 4 mph 92 % 0 in
18:42 40.3 °F 38.1 °F 30 in West 1 mph 4 mph 92 % 0 in
18:52 39.9 °F 37.8 °F 30 in WNW 3 mph 4 mph 92 % 0 in
19:02 39.9 °F 37.8 °F 30 in WNW 4 mph 5 mph 92 % 0 in
19:12 39.7 °F 37.9 °F 30 in WNW 4 mph 6 mph 93 % 0 in
19:22 39.7 °F 38.1 °F 30 in WNW 5 mph 5 mph 94 % 0 in
19:27 39.9 °F 38.1 °F 30 in WNW 2 mph 6 mph 93 % 0 in
19:32 39.9 °F 38.1 °F 30 in WNW 1 mph 6 mph 93 % 0 in
19:42 39.7 °F 38.1 °F 30 in WNW 3 mph 3 mph 94 % 0 in
19:47 39.7 °F 38.1 °F 30 in NW 1 mph 3 mph 94 % 0 in
19:57 39.7 °F 38.1 °F 30 in WNW 2 mph 3 mph 94 % 0 in
20:02 39.6 °F 37.9 °F 30 in WNW 1 mph 3 mph 94 % 0 in
20:07 39.6 °F 37.9 °F 30 in Calm   3 mph 94 % 0 in
20:17 39.6 °F 37.9 °F 30 in WNW 2 mph 3 mph 94 % 0 in
20:27 39.7 °F 38.1 °F 30 in West 1 mph 4 mph 94 % 0 in
20:37 39.9 °F 38.3 °F 30 in WNW 1 mph 4 mph 94 % 0 in
20:42 39.9 °F 38.3 °F 30 in WNW 2 mph 3 mph 94 % 0 in
20:47 39.9 °F 38.3 °F 30 in West 1 mph 3 mph 94 % 0 in
20:52 39.9 °F 38.3 °F 30 in Calm   3 mph 94 % 0 in
20:57 39.9 °F 38.7 °F 30 in Calm   3 mph 95 % 0 in
21:02 40.1 °F 38.8 °F 30 in West 1 mph 2 mph 95 % 0 in
21:07 40.3 °F 38.7 °F 30 in West 1 mph 2 mph 94 % 0 in
21:17 40.5 °F 39.2 °F 30 in NW 2 mph 3 mph 95 % 0 in
21:22 40.5 °F 39.2 °F 30 in West 2 mph 3 mph 95 % 0 in
21:27 40.6 °F 39.4 °F 30 in WSW 1 mph 3 mph 95 % 0 in
21:32 40.6 °F 39.4 °F 30 in WNW 2 mph 3 mph 95 % 0 in
21:37 40.6 °F 39.4 °F 30 in WNW 1 mph 4 mph 95 % 0 in
21:47 40.6 °F 39.4 °F 30 in WNW 1 mph 4 mph 95 % 0 in
21:52 40.6 °F 39.4 °F 30 in WNW 2 mph 4 mph 95 % 0 in
21:57 40.6 °F 39.4 °F 30 in WNW 1 mph 4 mph 95 % 0 in
22:02 40.6 °F 39.4 °F 30 in Calm   4 mph 95 % 0 in
22:07 40.5 °F 39.2 °F 30 in Calm   3 mph 95 % 0 in
22:12 40.5 °F 39.2 °F 30 in Calm   1 mph 95 % 0 in
22:17 40.5 °F 39.2 °F 30 in Calm     95 % 0 in
22:22 40.5 °F 39.2 °F 30 in Calm     95 % 0 in
22:32 40.3 °F 39 °F 30 in Calm   1 mph 95 % 0 in
22:37 40.3 °F 39 °F 30 in Calm   1 mph 95 % 0 in
22:42 40.3 °F 39 °F 30 in Calm   2 mph 95 % 0 in
22:47 40.3 °F 39 °F 30 in Calm   2 mph 95 % 0 in
22:52 39.9 °F 38.7 °F 30 in Calm   2 mph 95 % 0 in
23:02 39.4 °F 38.1 °F 30 in Calm   1 mph 95 % 0 in
23:12 39 °F 37.8 °F 30 in Calm   2 mph 95 % 0 in
23:17 38.7 °F 37.6 °F 30 in Calm   2 mph 96 % 0 in
23:27 38.5 °F 37.4 °F 30 in Calm   2 mph 96 % 0 in
23:32 38.5 °F 37.8 °F 30 in West 2 mph 3 mph 97 % 0 in
23:42 38.8 °F 38.1 °F 30 in NW 2 mph 4 mph 97 % 0 in
23:47 38.8 °F 37.8 °F 30 in Calm   4 mph 96 % 0 in
23:52 38.8 °F 37.8 °F 30.1 in WNW 1 mph 4 mph 96 % 0 in
23:57 38.8 °F 37.8 °F 30.1 in WNW 1 mph 3 mph 96 % 0 in
Meteo18
Compliments of Weather Underground - 4 mb

Script developed by  Jim McMurry - jmcmurry@mwt.net Adapted for the template by  Wim van der Kuil - Leuven-Template.eu

You find our weather info also at:

European Weather Network

Weather Underground

Equipment we use:

Weather-station
Davis Vue

Weather-program
Meteohub

Weather-server
Raspberry PI 2 B+

Provider
1 and 1

Davis Vue

Meteohub

Raspberry PI 2 B+

1 and 1